createdAt,value
2022-09-12T00:01:19.465Z,84.63
2022-09-12T00:04:22.514Z,84.49
2022-09-12T00:07:25.042Z,85.17
2022-09-12T00:10:27.957Z,85.83
2022-09-12T00:13:30.481Z,85.87
2022-09-12T00:16:35.792Z,85.60
2022-09-12T00:19:38.491Z,85.17
2022-09-12T00:22:42.349Z,85.14
2022-09-12T00:25:48.061Z,85.23
2022-09-12T00:28:51.133Z,85.62
2022-09-12T00:31:53.687Z,84.67
2022-09-12T00:34:57.035Z,85.71
2022-09-12T00:37:59.638Z,85.02
2022-09-12T00:41:02.472Z,84.26
2022-09-12T00:44:11.038Z,85.30
2022-09-12T00:47:25.063Z,85.54
2022-09-12T00:50:28.052Z,85.73
2022-09-12T00:53:31.548Z,85.14
2022-09-12T00:56:35.773Z,86.57
2022-09-12T00:59:44.389Z,87.01
2022-09-12T01:02:50.573Z,87.21
2022-09-12T01:06:35.398Z,86.91
2022-09-12T01:09:39.678Z,86.84
2022-09-12T01:12:44.161Z,86.85
2022-09-12T01:15:47.162Z,86.81
2022-09-12T01:19:09.226Z,86.45
2022-09-12T01:22:30.119Z,86.23
2022-09-12T01:25:54.114Z,87.29
2022-09-12T01:29:29.726Z,86.96
2022-09-12T01:33:15.349Z,87.51
2022-09-12T01:36:38.231Z,86.82
2022-09-12T01:39:59.186Z,87.59
2022-09-12T01:43:06.722Z,87.92
2022-09-12T01:46:17.785Z,87.40
2022-09-12T01:49:26.634Z,88.62
2022-09-12T01:52:43.058Z,88.96
2022-09-12T01:55:51.380Z,88.48
2022-09-12T01:59:25.315Z,88.48
2022-09-12T02:02:34.147Z,88.82
2022-09-12T02:05:46.146Z,90.62
2022-09-12T02:08:55.108Z,89.77
2022-09-12T02:12:00.900Z,90.22
2022-09-12T02:15:08.638Z,90.34
2022-09-12T02:18:16.078Z,90.43
2022-09-12T02:21:20.215Z,89.90
2022-09-12T02:24:25.808Z,89.48
2022-09-12T02:27:37.843Z,89.49
2022-09-12T02:30:49.476Z,89.32
2022-09-12T02:34:15.647Z,88.46
2022-09-12T02:37:21.545Z,88.50
2022-09-12T02:40:24.729Z,88.45
2022-09-12T02:43:28.160Z,88.51
2022-09-12T02:46:42.719Z,88.90
2022-09-12T02:49:46.204Z,89.16
2022-09-12T02:52:49.147Z,89.06
2022-09-12T02:55:54.740Z,88.22
2022-09-12T02:59:05.252Z,88.78
2022-09-12T03:02:36.867Z,89.03
2022-09-12T03:05:49.672Z,89.58
2022-09-12T03:09:03.158Z,90.30
2022-09-12T03:12:35.101Z,91.01
2022-09-12T03:16:09.045Z,90.78
2022-09-12T03:19:20.178Z,90.90
2022-09-12T03:22:38.967Z,90.73
2022-09-12T03:25:48.758Z,91.04
2022-09-12T03:28:53.233Z,91.46
2022-09-12T03:31:58.589Z,92.22
2022-09-12T03:35:01.398Z,91.51
2022-09-12T03:38:04.314Z,91.99
2022-09-12T03:41:08.550Z,92.37
2022-09-12T03:44:11.115Z,92.88
2022-09-12T03:47:14.111Z,92.25
2022-09-12T03:50:16.702Z,93.08
2022-09-12T03:53:19.568Z,93.29
2022-09-12T03:56:22.646Z,92.09
2022-09-12T03:59:26.060Z,91.89
2022-09-12T04:02:29.511Z,91.48
2022-09-12T04:05:33.939Z,92.42
2022-09-12T04:08:37.692Z,91.27
2022-09-12T04:11:40.748Z,89.72
2022-09-12T04:15:08.570Z,90.68
2022-09-12T04:18:43.099Z,91.54
2022-09-12T04:21:45.745Z,91.95
2022-09-12T04:24:48.623Z,91.02
2022-09-12T04:27:54.953Z,90.20
2022-09-12T04:31:32.514Z,89.15
2022-09-12T04:34:38.559Z,87.32
2022-09-12T04:37:41.131Z,85.85
2022-09-12T04:40:44.150Z,83.71
2022-09-12T04:43:51.782Z,82.59
2022-09-12T04:46:54.612Z,80.92
2022-09-12T04:49:57.345Z,80.07
2022-09-12T04:53:00.192Z,78.67
2022-09-12T04:56:08.153Z,75.74
2022-09-12T05:00:15.718Z,72.80
2022-09-12T05:03:43.486Z,71.28
2022-09-12T05:06:47.632Z,70.26
2022-09-12T05:09:50.438Z,68.66
2022-09-12T05:12:54.085Z,67.98
2022-09-12T05:21:13.533Z,64.94
2022-09-12T05:24:16.490Z,65.41
2022-09-12T05:27:19.202Z,64.67
2022-09-12T05:30:23.388Z,63.90
2022-09-12T05:33:25.963Z,63.31
2022-09-12T05:36:31.670Z,61.48
2022-09-12T05:39:36.851Z,63.38
2022-09-12T05:46:32.959Z,59.74
2022-09-12T05:49:39.627Z,60.35
2022-09-12T17:27:30.917Z,47.74
2022-09-12T17:30:36.206Z,48.17
2022-09-12T17:33:41.883Z,48.51
2022-09-12T17:36:46.003Z,48.09
2022-09-12T17:40:09.566Z,48.50
2022-09-12T17:43:14.349Z,48.63
2022-09-12T17:46:38.845Z,48.81
2022-09-12T18:39:52.798Z,51.56
2022-09-12T18:52:56.674Z,52.77
2022-09-12T18:56:11.145Z,54.60
2022-09-12T19:00:12.661Z,55.10
2022-09-12T19:12:50.829Z,56.41
2022-09-12T19:15:53.688Z,57.46
2022-09-12T19:18:58.270Z,57.80
2022-09-12T19:22:03.354Z,59.11
2022-09-12T19:25:06.730Z,59.43
2022-09-12T19:28:22.215Z,59.11
2022-09-12T19:37:01.459Z,59.17
2022-09-12T19:40:05.785Z,59.76
2022-09-12T19:43:09.538Z,60.71
2022-09-12T19:46:25.801Z,61.52
2022-09-12T19:49:28.819Z,62.06
2022-09-12T19:57:44.357Z,62.48
2022-09-12T20:02:14.447Z,63.03
2022-09-12T20:05:18.228Z,63.77
2022-09-12T20:08:23.210Z,63.97
2022-09-12T20:11:29.102Z,63.96
2022-09-12T20:14:32.009Z,64.62
2022-09-12T20:17:35.716Z,63.85
2022-09-12T20:20:42.067Z,63.76
2022-09-12T20:23:46.852Z,65.61
2022-09-12T20:26:49.491Z,65.12
2022-09-12T20:29:53.196Z,64.52
2022-09-12T20:32:56.915Z,64.60
2022-09-12T20:36:06.482Z,64.07
2022-09-12T20:39:20.892Z,65.47
2022-09-12T20:42:48.352Z,64.71
2022-09-12T20:45:51.193Z,64.76
2022-09-12T20:48:54.318Z,63.45
2022-09-12T20:51:57.282Z,64.27
2022-09-12T20:55:00.168Z,65.16
2022-09-12T20:58:02.713Z,66.88
2022-09-12T21:01:09.529Z,65.70
2022-09-12T21:04:15.152Z,64.90
2022-09-12T21:07:18.222Z,63.34
2022-09-12T21:10:20.711Z,64.49
2022-09-12T21:13:23.725Z,65.88
2022-09-12T21:16:27.399Z,66.84
2022-09-12T21:19:30.386Z,67.42
2022-09-12T21:22:32.884Z,67.18
2022-09-12T21:25:35.675Z,68.70
2022-09-12T21:28:38.356Z,68.77
2022-09-12T21:31:43.782Z,68.26
2022-09-12T21:34:47.898Z,68.12
2022-09-12T21:37:54.212Z,67.76
2022-09-12T21:41:09.420Z,69.62
2022-09-12T21:44:12.202Z,68.32
2022-09-12T21:47:14.720Z,69.35
2022-09-12T21:50:17.622Z,67.74
2022-09-12T21:53:20.374Z,65.53
2022-09-12T21:56:23.279Z,63.59
2022-09-12T21:59:25.870Z,63.50
2022-09-12T22:02:30.180Z,63.40
2022-09-12T22:05:34.386Z,63.03
2022-09-12T22:08:39.041Z,64.17
2022-09-12T22:11:41.961Z,64.97
2022-09-12T22:14:48.089Z,65.84
2022-09-12T22:17:51.110Z,66.83
2022-09-12T22:21:07.985Z,66.78
2022-09-12T22:24:29.235Z,66.88
2022-09-12T22:27:31.801Z,66.17
2022-09-12T22:30:35.528Z,67.61
2022-09-12T22:33:38.669Z,67.53
2022-09-12T22:36:41.819Z,64.09
2022-09-12T22:39:44.395Z,62.56
2022-09-12T22:42:48.477Z,61.12
2022-09-12T22:45:51.556Z,61.28
2022-09-12T22:48:55.805Z,61.21
2022-09-12T22:51:58.687Z,61.84
2022-09-12T22:55:02.205Z,61.44
2022-09-12T22:58:06.226Z,62.08
2022-09-12T23:01:10.578Z,62.09
2022-09-12T23:04:13.516Z,61.34
2022-09-12T23:07:17.370Z,62.05
2022-09-12T23:10:22.730Z,61.83
2022-09-12T23:13:26.207Z,63.62
2022-09-12T23:16:32.199Z,64.79
2022-09-12T23:19:35.640Z,61.82
2022-09-12T23:22:41.560Z,61.43
2022-09-12T23:25:44.928Z,60.80
2022-09-12T23:33:39.692Z,65.04
2022-09-12T23:37:33.368Z,67.79
2022-09-12T23:40:36.492Z,67.62
2022-09-12T23:43:40.458Z,66.56
2022-09-12T23:47:28.646Z,68.85
2022-09-12T23:50:31.142Z,65.44
2022-09-12T23:53:35.905Z,66.82
2022-09-12T23:56:38.750Z,65.70
2022-09-12T23:59:41.885Z,67.87
